SV8FES Naxos Island current weather conditions

sailwx.info

Wind from 323 at 10 knots gusting 20

Air temperature 28.9° C
Dewpoint 20.1° C

Last reported at 2020-Aug-13 14:05 UTC.
Time now 2020-Aug-13 15:16 UTC

Location: N 37°06' E 025°24'.
View on Google Maps.

See reports from other nearby stations

  
Tides and Currents Weather Stations Pressure Air Temp Water Temp Dewpoint Dewpoint Depression Visibility Wind Speed Wind Dir Waves Ship Positions
date/time (UTC)wind fromknots sea level pressurealtimeterstation pressurevisibilityair tempwater tempwave heightnotes
2020-Aug-13 14:05 323 10 gusting 20 28.9
2020-Aug-13 14:00 316 10 gusting 20 28.9
2020-Aug-13 13:55 316 9 gusting 19 28.9
2020-Aug-13 13:50 325 10 gusting 22 28.3
2020-Aug-13 13:45 324 10 gusting 22 28.9
2020-Aug-13 13:40 323 10 gusting 22 28.3
2020-Aug-13 13:35 321 13 gusting 25 28.3
2020-Aug-13 13:29 318 10 gusting 18 28.9
2020-Aug-13 13:25 331 11 gusting 19 28.9
2020-Aug-13 13:20 327 16 gusting 28 28.3
2020-Aug-13 13:15 328 15 gusting 25 28.3
2020-Aug-13 13:10 323 13 gusting 28 28.3
2020-Aug-13 13:04 318 10 gusting 28 28.9
2020-Aug-13 13:00 333 6 gusting 14 28.9
2020-Aug-13 12:55 305 6 gusting 12 29.4
2020-Aug-13 12:50 335 9 gusting 19 28.9
2020-Aug-13 12:45 337 8 gusting 20 28.9
2020-Aug-13 12:39 333 9 gusting 22 28.9
2020-Aug-13 12:34 047 6 gusting 16 28.9
2020-Aug-13 12:30 330 10 gusting 22 29.4
2020-Aug-13 12:24 331 9 gusting 19 28.9
2020-Aug-13 12:19 340 11 gusting 19 28.9
2020-Aug-13 12:14 336 9 gusting 18 29.4
2020-Aug-13 12:10 317 13 gusting 31 29.4
2020-Aug-13 12:04 317 13 gusting 31 29.4
2020-Aug-13 12:00 332 7 gusting 14 29.4
2020-Aug-13 11:55 322 12 gusting 24 29.4
2020-Aug-13 11:50 341 8 gusting 17 29.4
2020-Aug-13 11:45 332 8 gusting 17 29.4
2020-Aug-13 11:40 320 7 gusting 17 30.0
2020-Aug-13 11:35 325 10 gusting 25 29.4
2020-Aug-13 11:29 322 11 gusting 25 29.4
2020-Aug-13 11:25 318 13 gusting 34 29.4
2020-Aug-13 11:20 319 14 gusting 34 29.4
2020-Aug-13 11:15 328 8 gusting 18 29.4
2020-Aug-13 11:10 324 10 gusting 22 29.4
2020-Aug-13 11:05 345 7 gusting 16 29.4
2020-Aug-13 11:00 321 13 gusting 25 28.9
2020-Aug-13 10:55 326 9 gusting 17 28.9
2020-Aug-13 10:49 326 8 gusting 19 28.9
2020-Aug-13 10:45 324 13 gusting 28 28.9
2020-Aug-13 10:40 324 13 gusting 25 28.9
2020-Aug-13 10:35 320 12 gusting 24 29.4
2020-Aug-13 10:29 299 7 gusting 14 29.4
2020-Aug-13 10:25 320 10 gusting 22 28.9
2020-Aug-13 10:19 328 6 gusting 14 28.9
2020-Aug-13 10:15 332 8 gusting 22 28.9
2020-Aug-13 10:09 351 7 gusting 19 28.3
2020-Aug-13 10:05 324 14 gusting 28 28.3
2020-Aug-13 10:00 323 16 gusting 26 28.3
2020-Aug-13 09:55 322 13 gusting 25 28.9
2020-Aug-13 09:50 330 12 gusting 24 28.9
2020-Aug-13 09:45 330 13 gusting 25 28.9
2020-Aug-13 09:40 326 13 gusting 25 28.9
2020-Aug-13 09:35 327 12 gusting 22 28.9
2020-Aug-13 09:30 326 11 gusting 22 28.9
2020-Aug-13 09:24 342 8 gusting 17 28.9
2020-Aug-13 09:19 336 9 gusting 17 28.9
2020-Aug-13 09:15 321 14 gusting 25 28.9
2020-Aug-13 09:09 281 9 gusting 19 28.9
2020-Aug-13 09:04 305 10 gusting 22 28.3
2020-Aug-13 08:59 292 11 gusting 22 28.3
2020-Aug-13 08:55 318 14 gusting 28 28.3
2020-Aug-13 08:50 314 13 gusting 25 28.9
2020-Aug-13 08:44 279 9 gusting 21 28.3
2020-Aug-13 08:40 320 13 gusting 33 28.3
2020-Aug-13 08:34 318 9 gusting 20 28.3
2020-Aug-13 08:30 313 13 gusting 31 27.8
2020-Aug-13 08:24 355 8 gusting 24 28.3
2020-Aug-13 08:19 295 9 gusting 19 27.8
2020-Aug-13 08:14 295 9 gusting 21 28.3
2020-Aug-13 08:09 317 7 gusting 21 27.8
2020-Aug-13 08:05 311 9 gusting 34 27.8
2020-Aug-13 07:59 256 6 gusting 22 27.8
2020-Aug-13 07:54 252 7 gusting 19 27.8
2020-Aug-13 07:50 320 13 gusting 28 27.8
2020-Aug-13 07:45 320 15 gusting 28 27.2
2020-Aug-13 07:40 326 14 gusting 25 27.2
2020-Aug-13 07:35 327 12 gusting 22 26.7
2020-Aug-13 07:30 327 12 gusting 28 27.2
2020-Aug-13 07:25 331 13 gusting 28 27.2
2020-Aug-13 07:20 328 12 gusting 25 26.7
2020-Aug-13 07:15 331 11 gusting 25 26.7
2020-Aug-13 07:10 022 6 gusting 14 26.7
2020-Aug-13 07:05 335 10 gusting 22 26.7
2020-Aug-13 07:00 332 9 gusting 19 26.7
2020-Aug-13 06:55 325 7 gusting 19 26.7
2020-Aug-13 06:50 298 6 gusting 18 26.7
2020-Aug-13 06:45 325 11 gusting 26 26.7
2020-Aug-13 06:40 060 6 gusting 15 26.7
2020-Aug-13 06:35 280 7 gusting 13 26.7
2020-Aug-13 06:29 328 11 gusting 20 26.7
2020-Aug-13 06:25 327 10 gusting 19 26.7
2020-Aug-13 06:20 327 9 gusting 20 26.7
2020-Aug-13 06:15 339 8 gusting 24 26.1
2020-Aug-13 06:10 327 9 gusting 24 26.1
2020-Aug-13 06:05 320 8 gusting 20 26.1
2020-Aug-13 05:59 292 6 gusting 13 26.1
2020-Aug-13 05:54 314 6 gusting 13 26.1
2020-Aug-13 05:50 336 7 gusting 20 26.1
2020-Aug-13 05:44 291 5 gusting 13 26.1
2020-Aug-13 05:40 325 9 gusting 24 25.6
2020-Aug-13 05:35 337 8 gusting 24 25.6
2020-Aug-13 05:29 280 5 gusting 13 25.6
2020-Aug-13 05:25 319 7 gusting 22 25.6
2020-Aug-13 05:20 331 6 gusting 22 25.6
2020-Aug-13 05:14 054 3 gusting 9 25.6
2020-Aug-13 05:10 328 5 gusting 14 25.6
2020-Aug-13 05:05 337 6 gusting 14 25.0
2020-Aug-13 05:00 327 6 gusting 16 25.0
2020-Aug-13 04:55 321 5 gusting 16 25.0
2020-Aug-13 04:49 293 4 gusting 10 25.0
2020-Aug-13 04:44 016 3 gusting 10 25.0
2020-Aug-13 04:40 329 6 gusting 18 25.0
2020-Aug-13 04:35 333 7 gusting 19 25.0
2020-Aug-13 04:30 331 7 gusting 20 25.0
2020-Aug-13 04:25 323 8 gusting 22 25.0
2020-Aug-13 04:20 317 10 gusting 26 25.0
2020-Aug-13 04:14 028 7 gusting 18 25.0
2020-Aug-13 04:09 341 6 gusting 14 25.0
2020-Aug-13 04:05 315 11 gusting 16 25.0
2020-Aug-13 03:59 286 5 gusting 13 25.0
2020-Aug-13 03:54 296 6 gusting 13 25.0
2020-Aug-13 03:49 318 6 gusting 16 25.6
2020-Aug-13 03:44 322 4 gusting 16 25.6
2020-Aug-13 03:39 315 2 gusting 13 25.0
2020-Aug-13 03:34 272 3 gusting 13 25.0
2020-Aug-13 03:29 286 5 gusting 13 25.0
2020-Aug-13 03:24 262 5 gusting 10 25.0
2020-Aug-13 03:19 328 4 gusting 10 25.0
2020-Aug-13 03:14 248 4 gusting 11 25.0
2020-Aug-13 03:09 328 3 gusting 11 25.0
2020-Aug-13 03:04 285 2 gusting 10 25.0
2020-Aug-13 02:59 255 2 gusting 10 25.0
2020-Aug-13 02:54 066 3 gusting 10 25.0
2020-Aug-13 02:49 284 4 gusting 12 25.0
2020-Aug-13 02:44 259 3 gusting 12 25.0
2020-Aug-13 02:39 314 1 gusting 7 25.0
2020-Aug-13 02:34 227 2 gusting 7 25.0
2020-Aug-13 02:29 051 3 gusting 9 25.0
2020-Aug-13 02:24 116 3 gusting 9 25.0
2020-Aug-13 02:19 307 2 gusting 6 25.0
2020-Aug-13 02:14 277 2 gusting 6 25.0
2020-Aug-13 02:09 317 3 gusting 13 25.6
2020-Aug-13 02:05 295 4 gusting 13 25.6
2020-Aug-13 02:00 298 5 gusting 12 25.6
2020-Aug-13 01:55 285 5 gusting 12 25.6
2020-Aug-13 01:50 338 4 gusting 10 25.6
2020-Aug-13 01:45 297 4 gusting 10 25.6
2020-Aug-13 01:40 314 3 gusting 9 25.6
2020-Aug-13 01:35 291 1 gusting 9 25.6
2020-Aug-13 01:29 191 1 gusting 8 25.0
2020-Aug-13 01:25 042 1 gusting 6 25.6
2020-Aug-13 01:20 091 2 gusting 6 25.6
2020-Aug-13 01:14 275 2 gusting 6 25.0
2020-Aug-13 01:09 282 2 gusting 10 25.0
2020-Aug-13 01:04 087 2 gusting 10 24.4
2020-Aug-13 00:59 289 0 gusting 6 24.4
2020-Aug-13 00:54 106 0 gusting 3 24.4
2020-Aug-13 00:49 055 0 gusting 3 24.4
2020-Aug-13 00:44 068 0 gusting 3 24.4
2020-Aug-13 00:39 087 0 gusting 2 24.4
2020-Aug-13 00:34 117 0 gusting 5 24.4
2020-Aug-13 00:29 083 1 gusting 5 24.4
2020-Aug-13 00:24 076 1 gusting 6 25.0
2020-Aug-13 00:19 057 1 gusting 6 25.0
2020-Aug-13 00:14 349 1 gusting 6 25.0
2020-Aug-13 00:09 079 1 gusting 6 25.0
2020-Aug-13 00:04 162 0 gusting 4 25.0
2020-Aug-12 23:59 206 0 gusting 4 25.0
2020-Aug-12 23:54 110 0 gusting 3 25.0
2020-Aug-12 23:49 158 0 gusting 4 25.0
2020-Aug-12 23:44 081 0 gusting 4 25.0
2020-Aug-12 23:39 058 0 gusting 3 25.0
2020-Aug-12 23:34 059 0 gusting 3 25.0
2020-Aug-12 23:29 079 1 gusting 4 25.0
2020-Aug-12 23:24 150 1 gusting 6 25.0
2020-Aug-12 23:19 256 1 gusting 6 25.0
2020-Aug-12 23:14 095 1 gusting 6 25.0
2020-Aug-12 23:09 079 2 gusting 9 25.0
2020-Aug-12 23:04 054 1 gusting 9 25.0
2020-Aug-12 22:59 024 1 gusting 5 25.0
2020-Aug-12 22:54 093 1 gusting 5 25.6
2020-Aug-12 22:49 084 1 gusting 5 25.6
2020-Aug-12 22:44 218 1 gusting 5 25.6
2020-Aug-12 22:39 219 1 gusting 6 25.6
2020-Aug-12 22:34 142 1 gusting 6 25.6
2020-Aug-12 22:29 228 1 gusting 6 25.6
2020-Aug-12 22:24 328 2 gusting 8 25.6
2020-Aug-12 22:20 215 2 gusting 8 25.6
2020-Aug-12 22:15 192 1 gusting 9 25.6
2020-Aug-12 22:10 191 1 gusting 9 25.6
2020-Aug-12 22:05 255 2 gusting 9 25.6
2020-Aug-12 22:00 226 2 gusting 10 25.6
2020-Aug-12 21:54 326 2 gusting 6 25.6
2020-Aug-12 21:49 005 3 gusting 9 25.6
2020-Aug-12 21:44 020 3 gusting 9 26.1
2020-Aug-12 21:39 084 2 gusting 13 26.1
2020-Aug-12 21:34 017 2 gusting 13 26.1
2020-Aug-12 21:30 292 2 gusting 10 26.1
2020-Aug-12 21:25 231 4 gusting 12 26.1
2020-Aug-12 21:20 194 4 gusting 12 26.7
2020-Aug-12 21:15 296 4 gusting 14 26.7
2020-Aug-12 21:10 316 7 gusting 25 26.7
2020-Aug-12 21:05 345 4 gusting 17 26.7
2020-Aug-12 21:00 057 4 gusting 13 26.7
2020-Aug-12 20:55 257 4 gusting 13 26.7
2020-Aug-12 20:50 094 5 gusting 13 26.7
2020-Aug-12 20:45 346 5 gusting 13 27.2
2020-Aug-12 20:40 049 4 gusting 10 27.2
2020-Aug-12 20:35 271 3 gusting 10 27.2
2020-Aug-12 20:30 27.2
2020-Aug-12 20:25 311 5 gusting 14 27.2
2020-Aug-12 20:20 289 3 gusting 10 26.7
2020-Aug-12 20:15 275 2 gusting 9 26.7
2020-Aug-12 20:10 298 3 gusting 14 26.7
2020-Aug-12 20:05 304 3 gusting 12 26.7
2020-Aug-12 20:00 291 1 gusting 7 26.7
2020-Aug-12 19:55 170 3 gusting 12 26.7
2020-Aug-12 19:50 263 2 gusting 12 26.7
2020-Aug-12 19:45 331 4 gusting 16 26.7
2020-Aug-12 19:40 114 3 gusting 13 26.7
2020-Aug-12 19:35 326 5 gusting 19 26.7
2020-Aug-12 19:30 087 2 gusting 6 26.7
2020-Aug-12 19:25 084 3 gusting 12 26.7
2020-Aug-12 19:20 101 4 gusting 12 26.7
2020-Aug-12 19:15 060 2 gusting 7 26.7
2020-Aug-12 19:10 106 2 gusting 7 26.7
2020-Aug-12 19:05 079 3 gusting 10 26.7
2020-Aug-12 19:00 065 3 gusting 10 26.7
2020-Aug-12 18:54 078 2 gusting 8 26.7
2020-Aug-12 18:50 075 3 gusting 10 26.7
2020-Aug-12 18:44 087 1 gusting 5 26.7
2020-Aug-12 18:40 101 1 gusting 8 26.1
2020-Aug-12 18:35 136 1 gusting 8 26.1
2020-Aug-12 18:29 196 0 gusting 3 26.1
2020-Aug-12 18:25 131 1 gusting 4 26.1
2020-Aug-12 18:19 187 1 gusting 4 26.1
2020-Aug-12 18:15 092 2 gusting 10 26.1
2020-Aug-12 18:10 107 2 gusting 10 26.7
2020-Aug-12 18:05 148 1 gusting 8 26.7
2020-Aug-12 17:59 140 2 gusting 9 26.7
2020-Aug-12 17:54 251 2 gusting 9 26.7
2020-Aug-12 17:49 275 1 gusting 6 26.7
2020-Aug-12 17:45 247 2 gusting 10 26.7
2020-Aug-12 17:40 309 2 gusting 6 26.7
2020-Aug-12 17:35 321 1 gusting 4 26.7
2020-Aug-12 17:29 306 1 gusting 6 26.7
2020-Aug-12 17:24 307 1 gusting 6 27.2
2020-Aug-12 17:20 298 3 gusting 10 27.2
2020-Aug-12 17:15 278 3 gusting 10 27.2
2020-Aug-12 17:10 285 3 gusting 10 27.2
2020-Aug-12 17:05 328 3 gusting 10 27.2
2020-Aug-12 16:59 056 1 gusting 6 27.2
2020-Aug-12 16:54 168 1 gusting 4 27.8
2020-Aug-12 16:50 129 1 gusting 6 27.8
2020-Aug-12 16:45 236 2 gusting 8 27.8
2020-Aug-12 16:40 161 3 gusting 12 27.8
2020-Aug-12 16:34 074 2 gusting 9 27.8
2020-Aug-12 16:29 005 2 gusting 9 27.8
2020-Aug-12 16:25 301 5 gusting 12 28.3
2020-Aug-12 16:19 309 5 gusting 9 28.3
2020-Aug-12 16:15 314 6 gusting 14 28.3
2020-Aug-12 16:10 316 6 gusting 16 28.3
2020-Aug-12 16:04 351 5 gusting 11 28.3
2020-Aug-12 16:00 322 6 gusting 14 28.3
2020-Aug-12 15:55 325 8 gusting 16 28.3
2020-Aug-12 15:49 317 6 gusting 12 28.3
2020-Aug-12 15:45 329 8 gusting 22 28.9
2020-Aug-12 15:39 053 6 gusting 14 28.9
2020-Aug-12 15:35 317 10 gusting 20 28.9
2020-Aug-12 15:29 286 7 gusting 14 28.9
2020-Aug-12 15:25 314 11 gusting 25 29.4
2020-Aug-12 15:20 316 12 gusting 25 29.4
2020-Aug-12 15:14 334 8 gusting 16 29.4
2020-Aug-12 15:10 318 14 gusting 26 28.9
2020-Aug-12 15:05 317 14 gusting 26 28.9
2020-Aug-12 14:59 349 10 gusting 18 28.9
2020-Aug-12 14:55 319 14 gusting 26 28.9
2020-Aug-12 14:49 323 7 gusting 16 29.4
2020-Aug-12 14:44 332 6 gusting 16 29.4
2020-Aug-12 14:40 319 9 gusting 25 28.9
2020-Aug-12 14:35 319 9 gusting 25 28.9
2020-Aug-12 14:29 238 7 gusting 15 28.9
2020-Aug-12 14:25 323 12 gusting 25 28.9
2020-Aug-12 14:20 320 12 gusting 26 28.9
2020-Aug-12 14:14 045 8 gusting 18 28.9
2020-Aug-12 14:10 316 14 gusting 25 28.9
2020-Aug-12 14:05 314 14 gusting 26 28.9
2020-Aug-12 14:00 315 14 gusting 26 29.4
2020-Aug-12 13:55 316 14 gusting 26 29.4
2020-Aug-12 13:49 335 8 gusting 15 28.9
2020-Aug-12 13:45 318 12 gusting 24 28.9
2020-Aug-12 13:40 317 11 gusting 22 29.4
2020-Aug-12 13:35 315 11 gusting 20 29.4
2020-Aug-12 13:30 317 11 gusting 24 29.4
2020-Aug-12 13:25 316 10 gusting 24 29.4
2020-Aug-12 13:20 317 11 gusting 22 29.4
2020-Aug-12 13:15 347 7 gusting 14 29.4
2020-Aug-12 13:10 260 9 gusting 18 28.9
2020-Aug-12 13:05 322 13 gusting 26 29.4
2020-Aug-12 13:00 324 13 gusting 24 28.9
2020-Aug-12 12:55 29.4
2020-Aug-12 12:50 319 9 gusting 19 29.4
2020-Aug-12 12:45 317 13 gusting 24 29.4
2020-Aug-12 12:40 324 9 gusting 18 29.4
2020-Aug-12 12:34 278 8 gusting 15 29.4
2020-Aug-12 12:29 309 8 gusting 18 28.9
2020-Aug-12 12:24 311 8 gusting 18 29.4
2020-Aug-12 12:19 324 7 gusting 19 29.4
2020-Aug-12 12:14 275 7 gusting 19 29.4
2020-Aug-12 12:09 313 7 gusting 15 29.4
2020-Aug-12 12:05 315 12 gusting 24 29.4
2020-Aug-12 11:59 303 8 gusting 19 29.4
2020-Aug-12 11:55 312 13 gusting 30 29.4
2020-Aug-12 11:50 314 12 gusting 22 29.4
2020-Aug-12 11:45 313 10 gusting 20 30.0
2020-Aug-12 11:40 317 11 gusting 22 30.0
2020-Aug-12 11:34 30.0
2020-Aug-12 11:29 316 7 gusting 18 30.0
2020-Aug-12 11:25 320 10 gusting 26 29.4
2020-Aug-12 11:19 327 6 gusting 14 29.4
2020-Aug-12 11:14 341 6 gusting 16 29.4
2020-Aug-12 11:10 319 10 gusting 25 29.4
2020-Aug-12 11:04 315 7 gusting 16 28.9
2020-Aug-12 11:00 327 11 gusting 25 28.9
2020-Aug-12 10:55 322 12 gusting 25 28.9
2020-Aug-12 10:49 318 8 gusting 14 28.9
2020-Aug-12 10:45 322 11 gusting 24 28.9
2020-Aug-12 10:40 325 8 gusting 24 28.9
2020-Aug-12 10:35 329 9 gusting 19 28.3
2020-Aug-12 10:30 328 11 gusting 22 28.3
2020-Aug-12 10:25 326 10 gusting 22 28.9
2020-Aug-12 10:19 023 6 gusting 18 28.9
2020-Aug-12 10:15 321 13 gusting 26 28.9
2020-Aug-12 10:10 319 13 gusting 26 28.9
2020-Aug-12 10:05 310 12 gusting 24 28.9
2020-Aug-12 09:59 331 6 gusting 13 29.4
2020-Aug-12 09:55 318 10 gusting 20 29.4
2020-Aug-12 09:50 315 12 gusting 26 28.9
2020-Aug-12 09:45 312 12 gusting 26 28.9
2020-Aug-12 09:40 318 11 gusting 30 28.9
2020-Aug-12 09:35 316 10 gusting 30 28.9
2020-Aug-12 09:29 257 9 gusting 20 28.9
2020-Aug-12 09:25 318 14 gusting 31 28.3
2020-Aug-12 09:20 315 13 gusting 25 28.3
2020-Aug-12 09:15 319 13 gusting 25 28.3
2020-Aug-12 09:09 319 12 gusting 25 28.3
2020-Aug-12 09:05 319 12 gusting 25 28.3
2020-Aug-12 08:59 328 8 gusting 15 28.3
2020-Aug-12 08:55 321 12 gusting 22 28.3
2020-Aug-12 08:50 326 12 gusting 22 28.3
2020-Aug-12 08:45 323 11 gusting 25 28.3
2020-Aug-12 08:40 321 11 gusting 25 27.8
2020-Aug-12 08:35 323 11 gusting 22 27.8
2020-Aug-12 08:30 322 11 gusting 22 27.8
2020-Aug-12 08:25 318 9 gusting 24 27.8
2020-Aug-12 08:20 315 10 gusting 24 27.8
2020-Aug-12 08:14 246 7 gusting 13 27.2
2020-Aug-12 08:10 317 11 gusting 20 27.2
2020-Aug-12 08:04 307 7 gusting 13 27.2
2020-Aug-12 08:00 319 12 gusting 20 27.2
2020-Aug-12 07:55 322 12 gusting 20 27.2
2020-Aug-12 07:50 307 6 gusting 13 27.2
2020-Aug-12 07:45 322 9 gusting 19 27.2
2020-Aug-12 07:40 321 9 gusting 19 27.2
2020-Aug-12 07:35 320 9 gusting 22 27.2
2020-Aug-12 07:29 347 7 gusting 19 27.2
2020-Aug-12 07:25 315 11 gusting 30 26.7
2020-Aug-12 07:19 314 6 gusting 16 26.7
2020-Aug-12 07:14 321 6 gusting 13 26.7
2020-Aug-12 07:10 324 9 gusting 19 26.7
2020-Aug-12 07:05 324 8 gusting 20 26.7
2020-Aug-12 06:59 328 6 gusting 14 26.7
2020-Aug-12 06:55 320 10 gusting 22 26.7
2020-Aug-12 06:50 324 9 gusting 20 26.7
2020-Aug-12 06:45 324 8 gusting 18 26.1
2020-Aug-12 06:39 307 6 gusting 12 26.1
2020-Aug-12 06:34 284 6 gusting 12 26.1
2020-Aug-12 06:30 320 10 gusting 20 26.1
2020-Aug-12 06:25 323 10 gusting 20 25.6
2020-Aug-12 06:20 325 9 gusting 18 25.6
2020-Aug-12 06:15 329 8 gusting 19 25.6
2020-Aug-12 06:10 326 10 gusting 19 25.6
2020-Aug-12 06:04 341 6 gusting 13 25.6
2020-Aug-12 05:59 333 6 gusting 13 25.6
2020-Aug-12 05:55 329 9 gusting 20 25.6
2020-Aug-12 05:50 337 8 gusting 18 25.6
2020-Aug-12 05:44 028 7 gusting 13 25.0
2020-Aug-12 05:40 326 13 gusting 20 25.0
2020-Aug-12 05:35 329 11 gusting 20 25.0
2020-Aug-12 05:30 332 10 gusting 19 25.0
2020-Aug-12 05:25 330 11 gusting 20 25.0
2020-Aug-12 05:20 330 9 gusting 20 24.4
2020-Aug-12 05:15 327 9 gusting 25 24.4
2020-Aug-12 05:10 324 10 gusting 25 24.4
2020-Aug-12 05:05 322 9 gusting 20 24.4
2020-Aug-12 04:59 322 6 gusting 12 24.4
2020-Aug-12 04:55 318 10 gusting 18 24.4
2020-Aug-12 04:50 324 10 gusting 18 24.4
2020-Aug-12 04:45 327 8 gusting 18 24.4
2020-Aug-12 04:40 321 7 gusting 14 24.4
2020-Aug-12 04:35 322 6 gusting 16 24.4
2020-Aug-12 04:30 343 3 gusting 11 23.9
2020-Aug-12 04:25 23.9
2020-Aug-12 04:20 336 3 gusting 9 23.9
2020-Aug-12 04:15 350 4 gusting 14 23.9
2020-Aug-12 04:10 342 3 gusting 10 23.9
2020-Aug-12 04:05 065 3 gusting 7 23.9
2020-Aug-12 03:59 258 4 gusting 9 23.9
2020-Aug-12 03:55 334 4 gusting 9 23.9
2020-Aug-12 03:49 285 2 gusting 7 23.9
2020-Aug-12 03:44 318 3 gusting 7 23.9
2020-Aug-12 03:40 040 2 gusting 6 23.9
2020-Aug-12 03:35 311 3 gusting 11 23.9
2020-Aug-12 03:29 326 3 gusting 11 23.9
2020-Aug-12 03:25 329 4 gusting 11 23.9
2020-Aug-12 03:20 135 3 gusting 13 23.9
2020-Aug-12 03:15 350 2 gusting 8 23.9
2020-Aug-12 03:10 239 3 gusting 12 23.9
2020-Aug-12 03:05 332 3 gusting 12 23.9
2020-Aug-12 03:00 315 2 gusting 9 23.9
2020-Aug-12 02:55 334 2 gusting 9 23.9
2020-Aug-12 02:49 272 1 gusting 6 23.9
2020-Aug-12 02:44 038 1 gusting 4 23.9
2020-Aug-12 02:40 295 0 gusting 4 23.9
2020-Aug-12 02:35 226 0 gusting 2 23.9
2020-Aug-12 02:29 310 1 gusting 7 23.9
2020-Aug-12 02:25 168 2 gusting 7 23.9
2020-Aug-12 02:19 297 1 gusting 7 23.9
2020-Aug-12 02:15 085 2 gusting 7 23.9
2020-Aug-12 02:10 329 2 gusting 6 23.9
2020-Aug-12 02:05 031 2 gusting 6 23.9
2020-Aug-12 01:59 029 1 gusting 6 23.9
2020-Aug-12 01:55 031 1 gusting 4 23.9
2020-Aug-12 01:50 276 0 gusting 2 23.3
2020-Aug-12 01:44 286 0 gusting 3 23.9
2020-Aug-12 01:39 310 0 gusting 3 23.9
2020-Aug-12 01:35 301 1 gusting 3 23.9
2020-Aug-12 01:29 328 1 gusting 5 23.9
2020-Aug-12 01:25 027 1 gusting 5 23.9
2020-Aug-12 01:19 307 1 gusting 6 23.9
2020-Aug-12 01:14 010 1 gusting 6 23.9
2020-Aug-12 01:09 124 1 gusting 5 23.9
2020-Aug-12 01:04 264 1 gusting 3 23.9
2020-Aug-12 01:00 046 1 gusting 6 23.9
2020-Aug-12 00:54 274 0 gusting 4 23.9
2020-Aug-12 00:49 189 1 gusting 5 23.9
2020-Aug-12 00:44 343 1 gusting 5 24.4
2020-Aug-12 00:40 326 1 gusting 6 24.4
2020-Aug-12 00:35 316 2 gusting 10 24.4
2020-Aug-12 00:29 042 1 gusting 10 24.4
2020-Aug-12 00:25 272 1 gusting 8 24.4
2020-Aug-12 00:20 195 2 gusting 8 24.4
2020-Aug-12 00:14 081 2 gusting 8 24.4
2020-Aug-12 00:09 290 1 gusting 6 24.4
2020-Aug-12 00:05 258 2 gusting 7 24.4
2020-Aug-11 23:59 307 3 gusting 10 24.4
2020-Aug-11 23:54 276 3 gusting 10 24.4
2020-Aug-11 23:49 278 3 gusting 10 24.4
2020-Aug-11 23:44 309 2 gusting 7 24.4
2020-Aug-11 23:39 318 3 gusting 7 24.4
2020-Aug-11 23:34 347 2 gusting 7 24.4
2020-Aug-11 23:29 286 2 gusting 6 24.4
2020-Aug-11 23:24 297 1 gusting 5 24.4
2020-Aug-11 23:19 110 1 gusting 5 25.0
2020-Aug-11 23:14 306 1 gusting 6 25.0
2020-Aug-11 23:09 242 2 gusting 7 25.0
2020-Aug-11 23:04 181 2 gusting 7 25.0
2020-Aug-11 22:59 100 2 gusting 6 25.0
2020-Aug-11 22:54 226 2 gusting 7 25.0
2020-Aug-11 22:49 062 2 gusting 7 25.0
2020-Aug-11 22:44 206 2 gusting 6 25.0
2020-Aug-11 22:39 079 1 gusting 6 25.0
2020-Aug-11 22:34 120 1 gusting 5 25.0
2020-Aug-11 22:29 124 1 gusting 5 25.0
2020-Aug-11 22:24 128 1 gusting 4 25.0
2020-Aug-11 22:19 185 2 gusting 7 25.0
2020-Aug-11 22:14 151 2 gusting 7 25.6
2020-Aug-11 22:09 255 2 gusting 8 25.6
2020-Aug-11 22:04 314 2 gusting 8 25.6
2020-Aug-11 21:59 072 2 gusting 7 25.6
2020-Aug-11 21:54 072 2 gusting 6 25.6
2020-Aug-11 21:49 247 2 gusting 6 25.6
2020-Aug-11 21:44 175 1 gusting 6 25.6
2020-Aug-11 21:39 325 2 gusting 5 25.6
2020-Aug-11 21:34 144 2 gusting 5 25.6
2020-Aug-11 21:29 211 2 gusting 8 25.6
2020-Aug-11 21:25 154 4 gusting 13 25.6
2020-Aug-11 21:20 289 6 gusting 16 25.6
2020-Aug-11 21:15 306 5 gusting 16 25.6
2020-Aug-11 21:09 253 3 gusting 9 25.6
2020-Aug-11 21:05 314 5 gusting 25 25.6
2020-Aug-11 21:00 302 5 gusting 25 25.6
2020-Aug-11 20:54 201 4 gusting 13 26.1
2020-Aug-11 20:50 302 5 gusting 22 26.1
2020-Aug-11 20:45 306 5 gusting 22 26.1
2020-Aug-11 20:39 043 3 gusting 11 26.1
2020-Aug-11 20:35 299 4 gusting 16 26.1
2020-Aug-11 20:29 223 4 gusting 11 26.1
2020-Aug-11 20:25 303 7 gusting 19 26.1
2020-Aug-11 20:20 329 8 gusting 19 26.1
2020-Aug-11 20:14 324 4 gusting 13 26.1
2020-Aug-11 20:10 339 6 gusting 24 26.1
2020-Aug-11 20:05 325 7 gusting 30 26.1
2020-Aug-11 19:59 322 6 gusting 19 26.1
2020-Aug-11 19:54 035 5 gusting 14 26.1
2020-Aug-11 19:50 311 6 gusting 16 26.1
2020-Aug-11 19:45 222 5 gusting 11 26.1
2020-Aug-11 19:40 310 6 gusting 14 26.1
2020-Aug-11 19:35 311 5 gusting 14 26.1
2020-Aug-11 19:30 327 3 gusting 10 26.1
2020-Aug-11 19:24 323 4 gusting 14 26.1
2020-Aug-11 19:20 341 3 gusting 10 26.1
2020-Aug-11 19:14 059 2 gusting 10 26.1
2020-Aug-11 19:10 101 2 gusting 8 26.1
2020-Aug-11 19:05 348 2 gusting 8 26.1
2020-Aug-11 19:00 313 5 gusting 18 26.1
2020-Aug-11 18:55 326 2 gusting 12 26.1
2020-Aug-11 18:50 120 3 gusting 7 26.1
2020-Aug-11 18:45 073 3 gusting 7 26.1
2020-Aug-11 18:40 297 2 gusting 7 26.1
2020-Aug-11 18:35 301 1 gusting 6 26.1
2020-Aug-11 18:29 293 3 gusting 12 26.1
2020-Aug-11 18:24 029 5 gusting 12 26.7
2020-Aug-11 18:19 332 4 gusting 9 26.1
2020-Aug-11 18:15 319 6 gusting 14 26.1
2020-Aug-11 18:10 330 4 gusting 14 26.1
2020-Aug-11 18:05 326 4 gusting 12 26.1
2020-Aug-11 18:00 317 6 gusting 12 26.1
2020-Aug-11 17:55 321 6 gusting 13 26.1
2020-Aug-11 17:50 324 6 gusting 14 26.7
2020-Aug-11 17:44 321 4 gusting 13 26.1
2020-Aug-11 17:40 325 6 gusting 20 26.7
2020-Aug-11 17:34 307 4 gusting 10 26.7
2020-Aug-11 17:30 331 7 gusting 14 26.7
2020-Aug-11 17:25 324 9 gusting 16 26.7
2020-Aug-11 17:20 323 7 gusting 16 26.7
2020-Aug-11 17:15 322 6 gusting 16 26.7
2020-Aug-11 17:09 328 4 gusting 11 26.7
2020-Aug-11 17:05 325 6 gusting 19 26.7
2020-Aug-11 16:59 342 4 gusting 13 26.7
2020-Aug-11 16:55 295 6 gusting 14 26.7
2020-Aug-11 16:50 300 6 gusting 20 26.7
2020-Aug-11 16:44 325 4 gusting 13 27.2
2020-Aug-11 16:39 249 3 gusting 12 27.2
2020-Aug-11 16:35 300 4 gusting 14 27.2
2020-Aug-11 16:29 010 3 gusting 10 27.2
2020-Aug-11 16:25 302 5 gusting 14 27.2
2020-Aug-11 16:19 323 5 gusting 12 27.2
2020-Aug-11 16:15 308 7 gusting 18 27.2
2020-Aug-11 16:10 318 6 gusting 18 27.8
2020-Aug-11 16:05 319 7 gusting 16 27.8
2020-Aug-11 16:00 310 7 gusting 14 27.8
2020-Aug-11 15:54 253 6 gusting 12 27.8
2020-Aug-11 15:49 010 6 gusting 13 28.3
2020-Aug-11 15:45 315 9 gusting 20 28.3
2020-Aug-11 15:40 317 11 gusting 25 28.3
2020-Aug-11 15:34 301 7 gusting 16 28.3
2020-Aug-11 15:30 314 12 gusting 24 28.3
2020-Aug-11 15:25 313 13 gusting 25 28.3
2020-Aug-11 15:19 307 8 gusting 17 28.3
2020-Aug-11 15:15 313 12 gusting 22 28.3
2020-Aug-11 15:10 312 13 gusting 25 28.9
2020-Aug-11 15:05 313 13 gusting 28 28.3